首页
METAR-TAF:

METAR-TAF

机场 :

托庫門國際機場

Tocumen, 巴拿马

纬度: 09-03N, 经度: 079-22W, 海拔: 45米

当前天气观测

该预报发布于36分钟前的11:00 UTC
风速3节,风向西
温度 25°C
湿度 94%
气压 1009 hPa
能见度10公里或以上
散云层高于1600英尺, 塔状积云.
散云层高于9000英尺

METAR: MPTO 191100Z 27003KT 9999 SCT016TCU SCT090 25/24 Q1009 NOSIG

时间: 06:36 (11:36 UTC)

预报

该预报发布于6小时和36分钟前的05:00 UTC
预报有效从19日的 06点(UTC)到 20日的 12点(UTC)
风速6节,风向西北
能见度10公里或以上
散云层高于1600英尺
短暂存在
从 19日的 06点(UTC)到 19日的 10点(UTC)
风速2节,风向多变
短暂存在
从 19日的 15点(UTC)到 19日的 18点(UTC)
风速6节,风向东转东南
少量云层高于1500英尺, 塔状积云.
几率 30%
从 19日的 18点(UTC)到 19日的 22点(UTC)
风速6节,风向
能見度: 6000
散云层高于1500英尺, 积雨云.
多云层高于8000英尺
雷暴, 雨,

TAF: MPTO 190500Z 1906/2012 32006KT 9999 SCT016 TEMPO 1906/1910 VRB02KT TEMPO 1915/1918 12006KT FEW015TCU PROB30 1918/1922 19006KT 6000 TSRA SCT015CB BKN080

超过4000个机场的气象观测和天气预报(METAR&TAF报告)。

可查询的气象台以黄色和红色小点在地图上表示。

将鼠标移到小点上方,可查看气象台名称。

然后点击查看天气观测和预报。

如需切换地图:点击带黑十字的绿色按钮放大地图;点击带横线的绿色按钮缩小地图;或者点击绿色箭头查看邻近地区的地图。


METAR-TAF: